sensor_id;sensor_type;location;lat;lon;timestamp;P1;durP1;ratioP1;P2;durP2;ratioP2
55589;SDS011;41452;42.780;23.116;2022-09-30T00:01:26;7.32;;;3.63;;
55589;SDS011;41452;42.780;23.116;2022-09-30T00:03:55;5.60;;;3.20;;
55589;SDS011;41452;42.780;23.116;2022-09-30T00:06:22;4.57;;;3.25;;
55589;SDS011;41452;42.780;23.116;2022-09-30T00:08:48;8.15;;;3.95;;
55589;SDS011;41452;42.780;23.116;2022-09-30T00:11:15;5.88;;;3.58;;
55589;SDS011;41452;42.780;23.116;2022-09-30T00:13:42;7.32;;;4.10;;
55589;SDS011;41452;42.780;23.116;2022-09-30T00:16:09;10.40;;;4.70;;
55589;SDS011;41452;42.780;23.116;2022-09-30T00:18:36;5.47;;;2.92;;
55589;SDS011;41452;42.780;23.116;2022-09-30T00:21:02;6.57;;;4.05;;
55589;SDS011;41452;42.780;23.116;2022-09-30T00:23:28;6.72;;;3.92;;
55589;SDS011;41452;42.780;23.116;2022-09-30T00:26:00;10.57;;;3.90;;
55589;SDS011;41452;42.780;23.116;2022-09-30T00:28:28;6.95;;;3.42;;
55589;SDS011;41452;42.780;23.116;2022-09-30T00:30:57;7.90;;;4.15;;
55589;SDS011;41452;42.780;23.116;2022-09-30T00:33:27;6.78;;;3.08;;
55589;SDS011;41452;42.780;23.116;2022-09-30T00:35:52;13.73;;;3.50;;
55589;SDS011;41452;42.780;23.116;2022-09-30T00:38:18;9.13;;;3.63;;
55589;SDS011;41452;42.780;23.116;2022-09-30T00:40:43;4.97;;;3.20;;
55589;SDS011;41452;42.780;23.116;2022-09-30T00:43:11;8.75;;;3.63;;
55589;SDS011;41452;42.780;23.116;2022-09-30T00:45:47;9.98;;;3.28;;
55589;SDS011;41452;42.780;23.116;2022-09-30T00:48:18;7.15;;;3.60;;
55589;SDS011;41452;42.780;23.116;2022-09-30T00:50:48;5.47;;;3.28;;
55589;SDS011;41452;42.780;23.116;2022-09-30T00:53:24;10.43;;;3.50;;
55589;SDS011;41452;42.780;23.116;2022-09-30T00:58:29;9.27;;;3.67;;
55589;SDS011;41452;42.780;23.116;2022-09-30T01:01:00;9.20;;;3.22;;
55589;SDS011;41452;42.780;23.116;2022-09-30T01:03:30;5.68;;;3.22;;
55589;SDS011;41452;42.780;23.116;2022-09-30T01:06:00;5.30;;;3.33;;
55589;SDS011;41452;42.780;23.116;2022-09-30T01:08:27;9.23;;;3.80;;
55589;SDS011;41452;42.780;23.116;2022-09-30T01:10:54;7.40;;;4.00;;
55589;SDS011;41452;42.780;23.116;2022-09-30T01:13:20;6.65;;;3.30;;
55589;SDS011;41452;42.780;23.116;2022-09-30T01:18:43;5.65;;;3.28;;
55589;SDS011;41452;42.780;23.116;2022-09-30T01:35:05;6.88;;;3.70;;
55589;SDS011;41452;42.780;23.116;2022-09-30T01:40:06;10.73;;;3.40;;
55589;SDS011;41452;42.780;23.116;2022-09-30T01:42:42;9.52;;;3.30;;
55589;SDS011;41452;42.780;23.116;2022-09-30T01:45:17;11.43;;;4.20;;
55589;SDS011;41452;42.780;23.116;2022-09-30T01:53:30;4.90;;;3.40;;
55589;SDS011;41452;42.780;23.116;2022-09-30T01:58:41;10.93;;;3.65;;
55589;SDS011;41452;42.780;23.116;2022-09-30T02:01:20;6.90;;;3.70;;
55589;SDS011;41452;42.780;23.116;2022-09-30T02:04:11;7.88;;;3.50;;
55589;SDS011;41452;42.780;23.116;2022-09-30T02:06:40;7.55;;;4.22;;
55589;SDS011;41452;42.780;23.116;2022-09-30T02:09:16;5.50;;;3.75;;
55589;SDS011;41452;42.780;23.116;2022-09-30T02:12:08;9.60;;;3.88;;
55589;SDS011;41452;42.780;23.116;2022-09-30T02:14:51;7.53;;;4.10;;
55589;SDS011;41452;42.780;23.116;2022-09-30T02:17:24;8.93;;;3.90;;
55589;SDS011;41452;42.780;23.116;2022-09-30T02:20:06;10.52;;;3.90;;
55589;SDS011;41452;42.780;23.116;2022-09-30T02:22:37;7.95;;;4.63;;
55589;SDS011;41452;42.780;23.116;2022-09-30T02:25:14;5.78;;;3.63;;
55589;SDS011;41452;42.780;23.116;2022-09-30T02:27:46;8.45;;;3.90;;
55589;SDS011;41452;42.780;23.116;2022-09-30T02:30:17;7.72;;;3.72;;
55589;SDS011;41452;42.780;23.116;2022-09-30T02:32:50;6.68;;;3.80;;
55589;SDS011;41452;42.780;23.116;2022-09-30T02:35:26;5.93;;;3.63;;
55589;SDS011;41452;42.780;23.116;2022-09-30T02:38:20;8.43;;;4.30;;
55589;SDS011;41452;42.780;23.116;2022-09-30T02:43:30;7.05;;;4.07;;
55589;SDS011;41452;42.780;23.116;2022-09-30T02:48:37;10.00;;;4.35;;
55589;SDS011;41452;42.780;23.116;2022-09-30T02:53:50;7.07;;;3.83;;
55589;SDS011;41452;42.780;23.116;2022-09-30T02:58:57;12.95;;;4.63;;
55589;SDS011;41452;42.780;23.116;2022-09-30T03:01:22;7.53;;;3.83;;
55589;SDS011;41452;42.780;23.116;2022-09-30T03:03:55;10.73;;;4.55;;
55589;SDS011;41452;42.780;23.116;2022-09-30T03:06:23;6.60;;;3.60;;
55589;SDS011;41452;42.780;23.116;2022-09-30T03:08:50;9.27;;;4.63;;
55589;SDS011;41452;42.780;23.116;2022-09-30T03:11:17;7.78;;;3.90;;
55589;SDS011;41452;42.780;23.116;2022-09-30T03:16:43;8.38;;;4.00;;
55589;SDS011;41452;42.780;23.116;2022-09-30T03:19:18;9.07;;;4.35;;
55589;SDS011;41452;42.780;23.116;2022-09-30T03:30:39;7.25;;;4.13;;
55589;SDS011;41452;42.780;23.116;2022-09-30T03:36:01;9.40;;;4.20;;
55589;SDS011;41452;42.780;23.116;2022-09-30T03:41:32;13.23;;;4.55;;
55589;SDS011;41452;42.780;23.116;2022-09-30T03:44:15;9.05;;;4.88;;
55589;SDS011;41452;42.780;23.116;2022-09-30T03:46:52;8.65;;;4.32;;
55589;SDS011;41452;42.780;23.116;2022-09-30T03:49:34;8.18;;;4.90;;
55589;SDS011;41452;42.780;23.116;2022-09-30T03:52:04;10.98;;;4.68;;
55589;SDS011;41452;42.780;23.116;2022-09-30T03:54:31;7.35;;;4.25;;
55589;SDS011;41452;42.780;23.116;2022-09-30T03:56:57;9.82;;;4.57;;
55589;SDS011;41452;42.780;23.116;2022-09-30T03:59:29;9.57;;;4.95;;
55589;SDS011;41452;42.780;23.116;2022-09-30T04:01:55;12.68;;;4.80;;
55589;SDS011;41452;42.780;23.116;2022-09-30T04:04:21;11.82;;;4.90;;
55589;SDS011;41452;42.780;23.116;2022-09-30T04:06:47;12.75;;;4.93;;
55589;SDS011;41452;42.780;23.116;2022-09-30T04:09:13;8.15;;;4.68;;
55589;SDS011;41452;42.780;23.116;2022-09-30T04:11:38;11.82;;;5.28;;
55589;SDS011;41452;42.780;23.116;2022-09-30T04:14:04;7.47;;;4.78;;
55589;SDS011;41452;42.780;23.116;2022-09-30T04:16:32;8.95;;;4.50;;
55589;SDS011;41452;42.780;23.116;2022-09-30T04:18:58;9.02;;;5.28;;
55589;SDS011;41452;42.780;23.116;2022-09-30T04:21:24;7.38;;;4.78;;
55589;SDS011;41452;42.780;23.116;2022-09-30T04:23:52;13.57;;;5.55;;
55589;SDS011;41452;42.780;23.116;2022-09-30T04:26:18;11.50;;;5.45;;
55589;SDS011;41452;42.780;23.116;2022-09-30T04:28:44;9.50;;;4.75;;
55589;SDS011;41452;42.780;23.116;2022-09-30T04:31:10;9.43;;;4.85;;
55589;SDS011;41452;42.780;23.116;2022-09-30T04:33:38;10.35;;;5.72;;
55589;SDS011;41452;42.780;23.116;2022-09-30T04:36:04;12.93;;;5.47;;
55589;SDS011;41452;42.780;23.116;2022-09-30T04:38:30;15.18;;;5.80;;
55589;SDS011;41452;42.780;23.116;2022-09-30T04:40:56;15.82;;;5.25;;
55589;SDS011;41452;42.780;23.116;2022-09-30T04:43:25;9.98;;;5.45;;
55589;SDS011;41452;42.780;23.116;2022-09-30T04:45:51;11.82;;;5.70;;
55589;SDS011;41452;42.780;23.116;2022-09-30T04:48:17;13.63;;;5.95;;
55589;SDS011;41452;42.780;23.116;2022-09-30T04:50:43;9.93;;;6.68;;
55589;SDS011;41452;42.780;23.116;2022-09-30T04:53:10;14.88;;;7.72;;
55589;SDS011;41452;42.780;23.116;2022-09-30T04:55:36;16.60;;;6.50;;
55589;SDS011;41452;42.780;23.116;2022-09-30T04:58:02;14.27;;;7.55;;
55589;SDS011;41452;42.780;23.116;2022-09-30T05:00:28;14.15;;;6.68;;
55589;SDS011;41452;42.780;23.116;2022-09-30T05:02:53;9.95;;;6.10;;
55589;SDS011;41452;42.780;23.116;2022-09-30T05:05:19;12.45;;;5.20;;
55589;SDS011;41452;42.780;23.116;2022-09-30T05:07:44;14.60;;;6.07;;
55589;SDS011;41452;42.780;23.116;2022-09-30T05:10:10;9.93;;;5.00;;
55589;SDS011;41452;42.780;23.116;2022-09-30T05:12:36;8.02;;;5.13;;
55589;SDS011;41452;42.780;23.116;2022-09-30T05:15:06;7.15;;;4.60;;
55589;SDS011;41452;42.780;23.116;2022-09-30T05:17:32;8.32;;;4.35;;
55589;SDS011;41452;42.780;23.116;2022-09-30T05:19:57;11.57;;;4.88;;
55589;SDS011;41452;42.780;23.116;2022-09-30T05:22:23;12.75;;;4.60;;
55589;SDS011;41452;42.780;23.116;2022-09-30T05:24:50;12.15;;;5.20;;
55589;SDS011;41452;42.780;23.116;2022-09-30T05:27:16;7.72;;;4.45;;
55589;SDS011;41452;42.780;23.116;2022-09-30T05:29:42;10.23;;;4.57;;
55589;SDS011;41452;42.780;23.116;2022-09-30T05:32:08;9.82;;;4.57;;
55589;SDS011;41452;42.780;23.116;2022-09-30T05:34:34;9.70;;;4.85;;
55589;SDS011;41452;42.780;23.116;2022-09-30T05:36:59;8.45;;;4.95;;
55589;SDS011;41452;42.780;23.116;2022-09-30T05:39:25;14.68;;;4.50;;
55589;SDS011;41452;42.780;23.116;2022-09-30T05:41:50;9.68;;;4.85;;
55589;SDS011;41452;42.780;23.116;2022-09-30T05:44:16;10.80;;;5.28;;
55589;SDS011;41452;42.780;23.116;2022-09-30T05:46:42;12.60;;;5.40;;
55589;SDS011;41452;42.780;23.116;2022-09-30T05:49:07;15.52;;;5.53;;
55589;SDS011;41452;42.780;23.116;2022-09-30T05:51:33;16.67;;;5.40;;
55589;SDS011;41452;42.780;23.116;2022-09-30T05:53:58;10.15;;;5.82;;
55589;SDS011;41452;42.780;23.116;2022-09-30T05:56:24;10.88;;;5.80;;
55589;SDS011;41452;42.780;23.116;2022-09-30T05:58:50;12.98;;;6.60;;
55589;SDS011;41452;42.780;23.116;2022-09-30T06:01:15;15.18;;;7.13;;
55589;SDS011;41452;42.780;23.116;2022-09-30T06:03:44;15.50;;;7.78;;
55589;SDS011;41452;42.780;23.116;2022-09-30T06:06:11;12.25;;;7.28;;
55589;SDS011;41452;42.780;23.116;2022-09-30T06:08:37;21.50;;;8.77;;
55589;SDS011;41452;42.780;23.116;2022-09-30T06:11:13;14.77;;;7.05;;
55589;SDS011;41452;42.780;23.116;2022-09-30T06:13:41;16.42;;;7.72;;
55589;SDS011;41452;42.780;23.116;2022-09-30T06:16:08;12.88;;;6.97;;
55589;SDS011;41452;42.780;23.116;2022-09-30T06:18:34;12.15;;;7.35;;
55589;SDS011;41452;42.780;23.116;2022-09-30T06:21:00;13.50;;;7.13;;
55589;SDS011;41452;42.780;23.116;2022-09-30T06:23:28;14.15;;;7.50;;
55589;SDS011;41452;42.780;23.116;2022-09-30T06:25:54;14.30;;;7.78;;
55589;SDS011;41452;42.780;23.116;2022-09-30T06:28:20;14.25;;;8.23;;
55589;SDS011;41452;42.780;23.116;2022-09-30T06:30:46;14.43;;;6.55;;
55589;SDS011;41452;42.780;23.116;2022-09-30T06:33:13;14.20;;;7.35;;
55589;SDS011;41452;42.780;23.116;2022-09-30T06:35:39;14.48;;;7.65;;
55589;SDS011;41452;42.780;23.116;2022-09-30T06:38:07;23.10;;;9.77;;
55589;SDS011;41452;42.780;23.116;2022-09-30T06:40:33;15.55;;;8.90;;
55589;SDS011;41452;42.780;23.116;2022-09-30T06:42:58;19.98;;;10.23;;
55589;SDS011;41452;42.780;23.116;2022-09-30T06:45:25;20.40;;;9.45;;
55589;SDS011;41452;42.780;23.116;2022-09-30T06:47:54;14.43;;;8.88;;
55589;SDS011;41452;42.780;23.116;2022-09-30T06:50:21;16.55;;;8.57;;
55589;SDS011;41452;42.780;23.116;2022-09-30T06:52:46;17.17;;;8.82;;
55589;SDS011;41452;42.780;23.116;2022-09-30T06:55:12;15.40;;;8.55;;
55589;SDS011;41452;42.780;23.116;2022-09-30T06:57:38;21.75;;;9.00;;
55589;SDS011;41452;42.780;23.116;2022-09-30T07:00:04;14.40;;;7.70;;
55589;SDS011;41452;42.780;23.116;2022-09-30T07:02:31;15.05;;;8.25;;
55589;SDS011;41452;42.780;23.116;2022-09-30T07:04:58;12.80;;;7.60;;
55589;SDS011;41452;42.780;23.116;2022-09-30T07:07:23;14.75;;;8.32;;
55589;SDS011;41452;42.780;23.116;2022-09-30T07:09:49;16.77;;;7.72;;
55589;SDS011;41452;42.780;23.116;2022-09-30T07:12:14;13.70;;;7.82;;
55589;SDS011;41452;42.780;23.116;2022-09-30T07:14:41;17.98;;;9.27;;
55589;SDS011;41452;42.780;23.116;2022-09-30T07:17:06;20.17;;;9.50;;
55589;SDS011;41452;42.780;23.116;2022-09-30T07:19:32;20.67;;;10.20;;
55589;SDS011;41452;42.780;23.116;2022-09-30T07:21:58;20.23;;;12.35;;
55589;SDS011;41452;42.780;23.116;2022-09-30T07:24:43;20.23;;;11.07;;
55589;SDS011;41452;42.780;23.116;2022-09-30T07:27:08;24.05;;;11.73;;
55589;SDS011;41452;42.780;23.116;2022-09-30T07:29:34;23.67;;;11.60;;
55589;SDS011;41452;42.780;23.116;2022-09-30T07:31:59;21.83;;;10.70;;
55589;SDS011;41452;42.780;23.116;2022-09-30T07:34:25;17.77;;;9.93;;
55589;SDS011;41452;42.780;23.116;2022-09-30T07:36:50;16.17;;;9.57;;
55589;SDS011;41452;42.780;23.116;2022-09-30T07:39:16;16.20;;;8.48;;
55589;SDS011;41452;42.780;23.116;2022-09-30T07:41:41;17.00;;;9.98;;
55589;SDS011;41452;42.780;23.116;2022-09-30T07:44:09;14.90;;;9.35;;
55589;SDS011;41452;42.780;23.116;2022-09-30T07:46:37;16.38;;;9.65;;
55589;SDS011;41452;42.780;23.116;2022-09-30T07:49:04;19.23;;;8.80;;
55589;SDS011;41452;42.780;23.116;2022-09-30T07:51:37;18.10;;;8.15;;
55589;SDS011;41452;42.780;23.116;2022-09-30T07:54:05;14.48;;;8.27;;
55589;SDS011;41452;42.780;23.116;2022-09-30T07:56:32;13.00;;;8.05;;
55589;SDS011;41452;42.780;23.116;2022-09-30T07:59:02;10.98;;;7.43;;
55589;SDS011;41452;42.780;23.116;2022-09-30T08:01:28;14.05;;;7.97;;
55589;SDS011;41452;42.780;23.116;2022-09-30T08:03:56;12.68;;;7.53;;
55589;SDS011;41452;42.780;23.116;2022-09-30T08:06:24;12.90;;;7.80;;
55589;SDS011;41452;42.780;23.116;2022-09-30T08:08:51;12.10;;;7.60;;
55589;SDS011;41452;42.780;23.116;2022-09-30T08:11:18;12.48;;;8.02;;
55589;SDS011;41452;42.780;23.116;2022-09-30T08:13:48;15.15;;;8.07;;
55589;SDS011;41452;42.780;23.116;2022-09-30T08:16:15;15.75;;;8.43;;
55589;SDS011;41452;42.780;23.116;2022-09-30T08:18:40;16.73;;;8.48;;
55589;SDS011;41452;42.780;23.116;2022-09-30T08:21:06;16.83;;;10.00;;
55589;SDS011;41452;42.780;23.116;2022-09-30T08:23:32;15.68;;;9.63;;
55589;SDS011;41452;42.780;23.116;2022-09-30T08:26:02;17.73;;;9.90;;
55589;SDS011;41452;42.780;23.116;2022-09-30T08:28:29;17.85;;;9.30;;
55589;SDS011;41452;42.780;23.116;2022-09-30T08:31:04;15.48;;;9.57;;
55589;SDS011;41452;42.780;23.116;2022-09-30T08:33:31;25.40;;;10.65;;
55589;SDS011;41452;42.780;23.116;2022-09-30T08:36:00;21.00;;;10.00;;
55589;SDS011;41452;42.780;23.116;2022-09-30T08:38:26;16.30;;;9.20;;
55589;SDS011;41452;42.780;23.116;2022-09-30T08:43:57;19.30;;;9.27;;
55589;SDS011;41452;42.780;23.116;2022-09-30T08:51:51;15.65;;;8.80;;
55589;SDS011;41452;42.780;23.116;2022-09-30T08:54:22;15.63;;;8.38;;
55589;SDS011;41452;42.780;23.116;2022-09-30T08:56:50;16.80;;;8.80;;
55589;SDS011;41452;42.780;23.116;2022-09-30T09:04:57;11.65;;;5.00;;
55589;SDS011;41452;42.780;23.116;2022-09-30T09:10:22;12.25;;;5.97;;
55589;SDS011;41452;42.780;23.116;2022-09-30T09:12:58;7.60;;;3.45;;
55589;SDS011;41452;42.780;23.116;2022-09-30T09:15:44;7.38;;;3.40;;
55589;SDS011;41452;42.780;23.116;2022-09-30T09:21:07;5.78;;;2.42;;
55589;SDS011;41452;42.780;23.116;2022-09-30T09:23:37;3.95;;;2.53;;
55589;SDS011;41452;42.780;23.116;2022-09-30T09:26:03;5.72;;;3.05;;
55589;SDS011;41452;42.780;23.116;2022-09-30T09:28:36;5.97;;;2.50;;
55589;SDS011;41452;42.780;23.116;2022-09-30T09:31:13;2.47;;;1.77;;
55589;SDS011;41452;42.780;23.116;2022-09-30T09:33:41;3.03;;;1.73;;
55589;SDS011;41452;42.780;23.116;2022-09-30T09:36:20;5.38;;;2.17;;
55589;SDS011;41452;42.780;23.116;2022-09-30T09:41:51;4.70;;;2.10;;
55589;SDS011;41452;42.780;23.116;2022-09-30T09:47:13;11.10;;;2.83;;
55589;SDS011;41452;42.780;23.116;2022-09-30T09:49:42;5.30;;;1.90;;
55589;SDS011;41452;42.780;23.116;2022-09-30T09:54:44;5.70;;;2.08;;
55589;SDS011;41452;42.780;23.116;2022-09-30T09:57:13;6.45;;;2.08;;
55589;SDS011;41452;42.780;23.116;2022-09-30T09:59:56;4.43;;;2.53;;
55589;SDS011;41452;42.780;23.116;2022-09-30T10:02:27;3.50;;;1.65;;
55589;SDS011;41452;42.780;23.116;2022-09-30T10:04:55;5.32;;;1.80;;
55589;SDS011;41452;42.780;23.116;2022-09-30T10:07:32;4.78;;;1.80;;
55589;SDS011;41452;42.780;23.116;2022-09-30T10:10:05;4.20;;;1.33;;
55589;SDS011;41452;42.780;23.116;2022-09-30T10:12:35;3.15;;;1.40;;
55589;SDS011;41452;42.780;23.116;2022-09-30T10:15:03;3.15;;;1.80;;
55589;SDS011;41452;42.780;23.116;2022-09-30T10:17:36;3.72;;;1.88;;
55589;SDS011;41452;42.780;23.116;2022-09-30T10:22:40;3.33;;;1.35;;
55589;SDS011;41452;42.780;23.116;2022-09-30T10:27:34;6.10;;;1.48;;
55589;SDS011;41452;42.780;23.116;2022-09-30T10:30:00;2.05;;;1.20;;
55589;SDS011;41452;42.780;23.116;2022-09-30T10:32:26;3.70;;;1.50;;
55589;SDS011;41452;42.780;23.116;2022-09-30T10:35:03;1.92;;;1.10;;
55589;SDS011;41452;42.780;23.116;2022-09-30T10:37:31;3.60;;;1.30;;
55589;SDS011;41452;42.780;23.116;2022-09-30T10:39:58;3.83;;;1.40;;
55589;SDS011;41452;42.780;23.116;2022-09-30T10:42:31;6.85;;;1.30;;
55589;SDS011;41452;42.780;23.116;2022-09-30T10:44:59;2.35;;;1.25;;
55589;SDS011;41452;42.780;23.116;2022-09-30T10:47:30;5.03;;;1.58;;
55589;SDS011;41452;42.780;23.116;2022-09-30T10:52:28;7.03;;;1.45;;
55589;SDS011;41452;42.780;23.116;2022-09-30T10:55:07;3.47;;;1.40;;
55589;SDS011;41452;42.780;23.116;2022-09-30T10:57:50;2.78;;;1.38;;
55589;SDS011;41452;42.780;23.116;2022-09-30T11:00:19;2.63;;;1.33;;
55589;SDS011;41452;42.780;23.116;2022-09-30T11:05:41;3.38;;;1.30;;
55589;SDS011;41452;42.780;23.116;2022-09-30T11:08:11;3.10;;;1.27;;
55589;SDS011;41452;42.780;23.116;2022-09-30T11:10:57;1.85;;;1.00;;
55589;SDS011;41452;42.780;23.116;2022-09-30T11:13:37;3.97;;;1.30;;
55589;SDS011;41452;42.780;23.116;2022-09-30T11:18:48;4.07;;;1.40;;
55589;SDS011;41452;42.780;23.116;2022-09-30T11:23:53;2.75;;;1.10;;
55589;SDS011;41452;42.780;23.116;2022-09-30T11:34:03;1.60;;;0.85;;
55589;SDS011;41452;42.780;23.116;2022-09-30T11:44:42;4.05;;;1.00;;
55589;SDS011;41452;42.780;23.116;2022-09-30T11:47:16;3.92;;;0.90;;
55589;SDS011;41452;42.780;23.116;2022-09-30T12:00:32;9.27;;;3.03;;
55589;SDS011;41452;42.780;23.116;2022-09-30T12:03:06;3.28;;;1.10;;
55589;SDS011;41452;42.780;23.116;2022-09-30T12:05:43;2.47;;;1.17;;
55589;SDS011;41452;42.780;23.116;2022-09-30T12:10:53;3.35;;;1.20;;
55589;SDS011;41452;42.780;23.116;2022-09-30T12:13:24;1.92;;;1.00;;
55589;SDS011;41452;42.780;23.116;2022-09-30T12:15:55;3.67;;;1.10;;
55589;SDS011;41452;42.780;23.116;2022-09-30T12:18:38;4.22;;;1.15;;
55589;SDS011;41452;42.780;23.116;2022-09-30T12:21:24;3.17;;;1.20;;
55589;SDS011;41452;42.780;23.116;2022-09-30T12:24:04;1.50;;;1.10;;
55589;SDS011;41452;42.780;23.116;2022-09-30T12:26:32;5.80;;;1.30;;
55589;SDS011;41452;42.780;23.116;2022-09-30T12:28:59;3.38;;;1.38;;
55589;SDS011;41452;42.780;23.116;2022-09-30T12:49:17;2.08;;;0.85;;
55589;SDS011;41452;42.780;23.116;2022-09-30T12:51:51;5.10;;;0.98;;
55589;SDS011;41452;42.780;23.116;2022-09-30T12:54:24;4.40;;;0.88;;
55589;SDS011;41452;42.780;23.116;2022-09-30T12:56:56;3.70;;;0.82;;
55589;SDS011;41452;42.780;23.116;2022-09-30T12:59:28;4.28;;;1.02;;
55589;SDS011;41452;42.780;23.116;2022-09-30T13:01:57;5.32;;;0.90;;
55589;SDS011;41452;42.780;23.116;2022-09-30T13:07:05;1.55;;;1.00;;
55589;SDS011;41452;42.780;23.116;2022-09-30T13:09:36;2.83;;;0.98;;
55589;SDS011;41452;42.780;23.116;2022-09-30T13:13:07;1.98;;;0.80;;
55589;SDS011;41452;42.780;23.116;2022-09-30T13:26:01;2.58;;;1.15;;
55589;SDS011;41452;42.780;23.116;2022-09-30T13:28:29;4.13;;;1.00;;
55589;SDS011;41452;42.780;23.116;2022-09-30T13:31:12;1.85;;;0.80;;
55589;SDS011;41452;42.780;23.116;2022-09-30T13:34:28;1.70;;;0.88;;
55589;SDS011;41452;42.780;23.116;2022-09-30T13:39:24;1.50;;;0.77;;
55589;SDS011;41452;42.780;23.116;2022-09-30T13:47:38;4.72;;;0.88;;
55589;SDS011;41452;42.780;23.116;2022-09-30T13:53:03;2.47;;;0.82;;
55589;SDS011;41452;42.780;23.116;2022-09-30T13:55:42;2.42;;;0.90;;
55589;SDS011;41452;42.780;23.116;2022-09-30T14:06:35;4.22;;;0.95;;
55589;SDS011;41452;42.780;23.116;2022-09-30T14:21:00;4.15;;;0.85;;
55589;SDS011;41452;42.780;23.116;2022-09-30T14:23:36;2.55;;;1.00;;
55589;SDS011;41452;42.780;23.116;2022-09-30T14:26:10;2.85;;;0.73;;
55589;SDS011;41452;42.780;23.116;2022-09-30T14:28:44;2.78;;;1.00;;
55589;SDS011;41452;42.780;23.116;2022-09-30T14:31:16;2.00;;;0.80;;
55589;SDS011;41452;42.780;23.116;2022-09-30T14:33:43;1.73;;;0.90;;
55589;SDS011;41452;42.780;23.116;2022-09-30T14:36:15;2.28;;;0.90;;
55589;SDS011;41452;42.780;23.116;2022-09-30T14:38:44;2.40;;;1.17;;
55589;SDS011;41452;42.780;23.116;2022-09-30T14:41:18;4.82;;;1.00;;
55589;SDS011;41452;42.780;23.116;2022-09-30T14:43:47;2.20;;;0.85;;
55589;SDS011;41452;42.780;23.116;2022-09-30T14:46:50;2.97;;;1.08;;
55589;SDS011;41452;42.780;23.116;2022-09-30T14:49:12;2.70;;;0.80;;
55589;SDS011;41452;42.780;23.116;2022-09-30T14:54:20;7.07;;;0.90;;
55589;SDS011;41452;42.780;23.116;2022-09-30T14:56:47;2.08;;;0.85;;
55589;SDS011;41452;42.780;23.116;2022-09-30T14:59:18;2.55;;;0.90;;
55589;SDS011;41452;42.780;23.116;2022-09-30T15:01:47;2.60;;;0.93;;
55589;SDS011;41452;42.780;23.116;2022-09-30T15:04:19;3.15;;;0.90;;
55589;SDS011;41452;42.780;23.116;2022-09-30T15:06:50;7.15;;;1.27;;
55589;SDS011;41452;42.780;23.116;2022-09-30T15:12:20;4.65;;;1.17;;
55589;SDS011;41452;42.780;23.116;2022-09-30T15:14:56;2.03;;;0.80;;
55589;SDS011;41452;42.780;23.116;2022-09-30T15:19:51;3.53;;;1.00;;
55589;SDS011;41452;42.780;23.116;2022-09-30T15:22:17;3.47;;;1.10;;
55589;SDS011;41452;42.780;23.116;2022-09-30T15:24:45;2.20;;;1.25;;
55589;SDS011;41452;42.780;23.116;2022-09-30T15:32:37;8.95;;;1.38;;
55589;SDS011;41452;42.780;23.116;2022-09-30T15:35:04;5.13;;;1.20;;
55589;SDS011;41452;42.780;23.116;2022-09-30T15:37:31;5.78;;;1.40;;
55589;SDS011;41452;42.780;23.116;2022-09-30T15:39:58;8.68;;;1.67;;
55589;SDS011;41452;42.780;23.116;2022-09-30T15:42:45;5.45;;;1.10;;
55589;SDS011;41452;42.780;23.116;2022-09-30T15:47:51;2.85;;;1.20;;
55589;SDS011;41452;42.780;23.116;2022-09-30T15:50:40;3.72;;;1.20;;
55589;SDS011;41452;42.780;23.116;2022-09-30T15:53:13;7.93;;;1.60;;
55589;SDS011;41452;42.780;23.116;2022-09-30T15:55:42;6.93;;;2.65;;
55589;SDS011;41452;42.780;23.116;2022-09-30T16:06:12;2.75;;;1.30;;
55589;SDS011;41452;42.780;23.116;2022-09-30T16:08:45;6.53;;;1.48;;
55589;SDS011;41452;42.780;23.116;2022-09-30T16:11:17;3.67;;;1.42;;
55589;SDS011;41452;42.780;23.116;2022-09-30T16:13:47;5.82;;;2.03;;
55589;SDS011;41452;42.780;23.116;2022-09-30T16:16:21;3.88;;;1.80;;
55589;SDS011;41452;42.780;23.116;2022-09-30T16:18:52;8.27;;;1.75;;
55589;SDS011;41452;42.780;23.116;2022-09-30T16:21:38;8.60;;;2.08;;
55589;SDS011;41452;42.780;23.116;2022-09-30T16:26:46;5.53;;;2.90;;
55589;SDS011;41452;42.780;23.116;2022-09-30T16:29:13;9.20;;;2.60;;
55589;SDS011;41452;42.780;23.116;2022-09-30T16:31:39;13.50;;;2.80;;
55589;SDS011;41452;42.780;23.116;2022-09-30T16:34:05;21.98;;;4.50;;
55589;SDS011;41452;42.780;23.116;2022-09-30T16:36:31;7.80;;;3.40;;
55589;SDS011;41452;42.780;23.116;2022-09-30T16:38:56;17.23;;;2.58;;
55589;SDS011;41452;42.780;23.116;2022-09-30T16:41:23;4.32;;;1.85;;
55589;SDS011;41452;42.780;23.116;2022-09-30T16:43:49;4.57;;;1.70;;
55589;SDS011;41452;42.780;23.116;2022-09-30T16:46:15;10.80;;;2.10;;
55589;SDS011;41452;42.780;23.116;2022-09-30T16:48:40;3.35;;;1.50;;
55589;SDS011;41452;42.780;23.116;2022-09-30T16:53:41;2.90;;;2.00;;
55589;SDS011;41452;42.780;23.116;2022-09-30T16:56:16;3.88;;;1.98;;
55589;SDS011;41452;42.780;23.116;2022-09-30T16:58:43;2.95;;;1.88;;
55589;SDS011;41452;42.780;23.116;2022-09-30T17:01:17;6.72;;;3.00;;
55589;SDS011;41452;42.780;23.116;2022-09-30T17:03:44;4.70;;;2.33;;
55589;SDS011;41452;42.780;23.116;2022-09-30T17:06:10;13.18;;;2.75;;
55589;SDS011;41452;42.780;23.116;2022-09-30T17:08:36;13.25;;;2.63;;
55589;SDS011;41452;42.780;23.116;2022-09-30T17:11:02;11.25;;;1.88;;
55589;SDS011;41452;42.780;23.116;2022-09-30T17:13:27;8.48;;;1.67;;
55589;SDS011;41452;42.780;23.116;2022-09-30T17:15:53;9.10;;;1.92;;
55589;SDS011;41452;42.780;23.116;2022-09-30T17:18:19;11.75;;;1.92;;
55589;SDS011;41452;42.780;23.116;2022-09-30T17:20:45;10.18;;;2.05;;
55589;SDS011;41452;42.780;23.116;2022-09-30T17:23:17;6.13;;;1.60;;
55589;SDS011;41452;42.780;23.116;2022-09-30T17:25:46;8.30;;;2.13;;
55589;SDS011;41452;42.780;23.116;2022-09-30T17:28:12;8.45;;;1.83;;
55589;SDS011;41452;42.780;23.116;2022-09-30T17:30:38;8.27;;;1.98;;
55589;SDS011;41452;42.780;23.116;2022-09-30T17:33:05;6.55;;;2.10;;
55589;SDS011;41452;42.780;23.116;2022-09-30T17:35:33;6.32;;;2.28;;
55589;SDS011;41452;42.780;23.116;2022-09-30T17:37:59;6.13;;;2.25;;
55589;SDS011;41452;42.780;23.116;2022-09-30T17:40:25;9.70;;;3.10;;
55589;SDS011;41452;42.780;23.116;2022-09-30T17:43:09;7.77;;;2.80;;
55589;SDS011;41452;42.780;23.116;2022-09-30T17:45:35;7.72;;;2.95;;
55589;SDS011;41452;42.780;23.116;2022-09-30T17:48:05;3.85;;;2.30;;
55589;SDS011;41452;42.780;23.116;2022-09-30T17:50:36;9.15;;;3.20;;
55589;SDS011;41452;42.780;23.116;2022-09-30T17:53:04;12.32;;;2.80;;
55589;SDS011;41452;42.780;23.116;2022-09-30T17:55:30;4.97;;;2.55;;
55589;SDS011;41452;42.780;23.116;2022-09-30T17:57:57;6.95;;;2.50;;
55589;SDS011;41452;42.780;23.116;2022-09-30T18:00:23;13.32;;;2.53;;
55589;SDS011;41452;42.780;23.116;2022-09-30T18:02:51;5.13;;;1.92;;
55589;SDS011;41452;42.780;23.116;2022-09-30T18:05:18;6.65;;;2.05;;
55589;SDS011;41452;42.780;23.116;2022-09-30T18:07:44;11.50;;;2.10;;
55589;SDS011;41452;42.780;23.116;2022-09-30T18:10:10;5.68;;;2.13;;
55589;SDS011;41452;42.780;23.116;2022-09-30T18:12:36;7.70;;;2.75;;
55589;SDS011;41452;42.780;23.116;2022-09-30T18:15:01;6.65;;;2.60;;
55589;SDS011;41452;42.780;23.116;2022-09-30T18:17:26;8.13;;;2.50;;
55589;SDS011;41452;42.780;23.116;2022-09-30T18:19:52;10.68;;;2.30;;
55589;SDS011;41452;42.780;23.116;2022-09-30T18:22:17;8.93;;;2.15;;
55589;SDS011;41452;42.780;23.116;2022-09-30T18:24:43;5.07;;;2.10;;
55589;SDS011;41452;42.780;23.116;2022-09-30T18:27:27;6.47;;;2.00;;